sensor_id;sensor_type;location;lat;lon;timestamp;P1;durP1;ratioP1;P2;durP2;ratioP2
54743;SDS011;40639;53.170;6.728;2023-07-02T00:00:32;10.73;;;4.43;;
54743;SDS011;40639;53.170;6.728;2023-07-02T00:03:00;14.13;;;4.88;;
54743;SDS011;40639;53.170;6.728;2023-07-02T00:05:26;11.40;;;4.72;;
54743;SDS011;40639;53.170;6.728;2023-07-02T00:07:52;13.70;;;4.00;;
54743;SDS011;40639;53.170;6.728;2023-07-02T00:10:19;9.23;;;4.50;;
54743;SDS011;40639;53.170;6.728;2023-07-02T00:12:45;12.50;;;4.65;;
54743;SDS011;40639;53.170;6.728;2023-07-02T00:15:11;13.05;;;4.95;;
54743;SDS011;40639;53.170;6.728;2023-07-02T00:17:37;12.48;;;5.18;;
54743;SDS011;40639;53.170;6.728;2023-07-02T00:20:05;13.40;;;5.45;;
54743;SDS011;40639;53.170;6.728;2023-07-02T00:22:38;11.68;;;4.57;;
54743;SDS011;40639;53.170;6.728;2023-07-02T00:25:11;15.95;;;5.85;;
54743;SDS011;40639;53.170;6.728;2023-07-02T00:27:37;13.38;;;5.30;;
54743;SDS011;40639;53.170;6.728;2023-07-02T00:30:04;12.88;;;5.25;;
54743;SDS011;40639;53.170;6.728;2023-07-02T00:32:30;15.50;;;5.75;;
54743;SDS011;40639;53.170;6.728;2023-07-02T00:34:56;9.63;;;5.18;;
54743;SDS011;40639;53.170;6.728;2023-07-02T00:37:23;14.20;;;5.85;;
54743;SDS011;40639;53.170;6.728;2023-07-02T00:39:49;19.67;;;6.10;;
54743;SDS011;40639;53.170;6.728;2023-07-02T00:42:17;17.35;;;6.13;;
54743;SDS011;40639;53.170;6.728;2023-07-02T00:44:43;14.82;;;6.15;;
54743;SDS011;40639;53.170;6.728;2023-07-02T00:47:11;11.18;;;5.70;;
54743;SDS011;40639;53.170;6.728;2023-07-02T00:49:39;13.88;;;5.95;;
54743;SDS011;40639;53.170;6.728;2023-07-02T00:52:05;15.00;;;6.13;;
54743;SDS011;40639;53.170;6.728;2023-07-02T00:54:31;16.05;;;5.95;;
54743;SDS011;40639;53.170;6.728;2023-07-02T00:56:57;14.52;;;5.78;;
54743;SDS011;40639;53.170;6.728;2023-07-02T00:59:27;12.55;;;5.88;;
54743;SDS011;40639;53.170;6.728;2023-07-02T01:01:55;16.30;;;6.18;;
54743;SDS011;40639;53.170;6.728;2023-07-02T01:04:22;14.68;;;5.70;;
54743;SDS011;40639;53.170;6.728;2023-07-02T01:06:52;15.02;;;5.78;;
54743;SDS011;40639;53.170;6.728;2023-07-02T01:09:22;15.60;;;5.72;;
54743;SDS011;40639;53.170;6.728;2023-07-02T01:11:51;14.98;;;6.57;;
54743;SDS011;40639;53.170;6.728;2023-07-02T01:16:45;12.05;;;5.68;;
54743;SDS011;40639;53.170;6.728;2023-07-02T01:19:22;14.23;;;5.80;;
54743;SDS011;40639;53.170;6.728;2023-07-02T01:21:51;18.77;;;6.75;;
54743;SDS011;40639;53.170;6.728;2023-07-02T01:24:17;15.13;;;5.60;;
54743;SDS011;40639;53.170;6.728;2023-07-02T01:26:46;15.30;;;5.93;;
54743;SDS011;40639;53.170;6.728;2023-07-02T01:29:20;16.30;;;5.63;;
54743;SDS011;40639;53.170;6.728;2023-07-02T01:31:46;18.08;;;5.97;;
54743;SDS011;40639;53.170;6.728;2023-07-02T01:34:13;17.48;;;6.47;;
54743;SDS011;40639;53.170;6.728;2023-07-02T01:36:39;16.65;;;6.20;;
54743;SDS011;40639;53.170;6.728;2023-07-02T01:39:05;17.15;;;6.03;;
54743;SDS011;40639;53.170;6.728;2023-07-02T01:41:36;15.35;;;5.47;;
54743;SDS011;40639;53.170;6.728;2023-07-02T01:44:03;17.63;;;6.75;;
54743;SDS011;40639;53.170;6.728;2023-07-02T01:46:30;16.13;;;6.15;;
54743;SDS011;40639;53.170;6.728;2023-07-02T01:48:56;17.67;;;6.35;;
54743;SDS011;40639;53.170;6.728;2023-07-02T01:51:22;14.65;;;5.75;;
54743;SDS011;40639;53.170;6.728;2023-07-02T01:53:50;16.35;;;6.45;;
54743;SDS011;40639;53.170;6.728;2023-07-02T01:56:16;19.45;;;6.60;;
54743;SDS011;40639;53.170;6.728;2023-07-02T01:58:42;20.95;;;7.43;;
54743;SDS011;40639;53.170;6.728;2023-07-02T02:01:08;16.90;;;6.88;;
54743;SDS011;40639;53.170;6.728;2023-07-02T02:03:35;18.27;;;6.90;;
54743;SDS011;40639;53.170;6.728;2023-07-02T02:06:01;16.92;;;6.68;;
54743;SDS011;40639;53.170;6.728;2023-07-02T02:08:27;13.68;;;6.13;;
54743;SDS011;40639;53.170;6.728;2023-07-02T02:10:53;15.15;;;6.03;;
54743;SDS011;40639;53.170;6.728;2023-07-02T02:13:19;19.35;;;6.82;;
54743;SDS011;40639;53.170;6.728;2023-07-02T02:15:45;23.48;;;7.45;;
54743;SDS011;40639;53.170;6.728;2023-07-02T02:18:11;14.05;;;6.13;;
54743;SDS011;40639;53.170;6.728;2023-07-02T02:20:38;19.23;;;6.35;;
54743;SDS011;40639;53.170;6.728;2023-07-02T02:23:04;16.38;;;6.55;;
54743;SDS011;40639;53.170;6.728;2023-07-02T02:25:30;16.15;;;6.20;;
54743;SDS011;40639;53.170;6.728;2023-07-02T02:27:56;14.65;;;6.70;;
54743;SDS011;40639;53.170;6.728;2023-07-02T02:30:25;19.70;;;7.40;;
54743;SDS011;40639;53.170;6.728;2023-07-02T02:32:51;21.30;;;7.05;;
54743;SDS011;40639;53.170;6.728;2023-07-02T02:35:17;19.77;;;7.30;;
54743;SDS011;40639;53.170;6.728;2023-07-02T02:37:43;19.77;;;6.63;;
54743;SDS011;40639;53.170;6.728;2023-07-02T02:40:09;18.67;;;6.97;;
54743;SDS011;40639;53.170;6.728;2023-07-02T02:42:35;21.90;;;7.03;;
54743;SDS011;40639;53.170;6.728;2023-07-02T02:45:02;20.42;;;7.00;;
54743;SDS011;40639;53.170;6.728;2023-07-02T02:47:28;21.88;;;6.50;;
54743;SDS011;40639;53.170;6.728;2023-07-02T02:49:55;17.58;;;7.05;;
54743;SDS011;40639;53.170;6.728;2023-07-02T02:52:21;16.50;;;6.65;;
54743;SDS011;40639;53.170;6.728;2023-07-02T02:54:47;20.83;;;7.45;;
54743;SDS011;40639;53.170;6.728;2023-07-02T02:57:13;17.13;;;7.97;;
54743;SDS011;40639;53.170;6.728;2023-07-02T02:59:39;17.20;;;6.68;;
54743;SDS011;40639;53.170;6.728;2023-07-02T03:02:06;21.60;;;7.03;;
54743;SDS011;40639;53.170;6.728;2023-07-02T03:04:32;21.38;;;7.00;;
54743;SDS011;40639;53.170;6.728;2023-07-02T03:06:58;18.08;;;7.03;;
54743;SDS011;40639;53.170;6.728;2023-07-02T03:09:24;22.73;;;7.32;;
54743;SDS011;40639;53.170;6.728;2023-07-02T03:11:51;19.35;;;6.63;;
54743;SDS011;40639;53.170;6.728;2023-07-02T03:14:17;19.98;;;7.15;;
54743;SDS011;40639;53.170;6.728;2023-07-02T03:16:43;17.90;;;6.80;;
54743;SDS011;40639;53.170;6.728;2023-07-02T03:19:11;22.20;;;7.97;;
54743;SDS011;40639;53.170;6.728;2023-07-02T03:21:40;18.50;;;6.82;;
54743;SDS011;40639;53.170;6.728;2023-07-02T03:24:06;22.20;;;6.68;;
54743;SDS011;40639;53.170;6.728;2023-07-02T03:26:32;18.80;;;6.60;;
54743;SDS011;40639;53.170;6.728;2023-07-02T03:28:58;14.80;;;6.75;;
54743;SDS011;40639;53.170;6.728;2023-07-02T03:31:24;17.20;;;7.22;;
54743;SDS011;40639;53.170;6.728;2023-07-02T03:33:50;23.52;;;7.38;;
54743;SDS011;40639;53.170;6.728;2023-07-02T03:36:16;19.70;;;6.55;;
54743;SDS011;40639;53.170;6.728;2023-07-02T03:38:43;17.13;;;6.93;;
54743;SDS011;40639;53.170;6.728;2023-07-02T03:41:09;20.38;;;7.00;;
54743;SDS011;40639;53.170;6.728;2023-07-02T03:43:35;18.83;;;6.65;;
54743;SDS011;40639;53.170;6.728;2023-07-02T03:46:01;16.58;;;7.40;;
54743;SDS011;40639;53.170;6.728;2023-07-02T03:48:27;22.02;;;6.65;;
54743;SDS011;40639;53.170;6.728;2023-07-02T03:50:53;17.13;;;7.13;;
54743;SDS011;40639;53.170;6.728;2023-07-02T03:53:19;19.58;;;6.70;;
54743;SDS011;40639;53.170;6.728;2023-07-02T03:55:45;17.80;;;6.63;;
54743;SDS011;40639;53.170;6.728;2023-07-02T03:58:12;18.13;;;6.63;;
54743;SDS011;40639;53.170;6.728;2023-07-02T04:00:38;20.75;;;7.40;;
54743;SDS011;40639;53.170;6.728;2023-07-02T04:03:05;15.70;;;6.15;;
54743;SDS011;40639;53.170;6.728;2023-07-02T04:05:31;18.90;;;7.03;;
54743;SDS011;40639;53.170;6.728;2023-07-02T04:07:57;20.58;;;6.97;;
54743;SDS011;40639;53.170;6.728;2023-07-02T04:10:24;19.50;;;8.32;;
54743;SDS011;40639;53.170;6.728;2023-07-02T04:12:50;17.20;;;6.20;;
54743;SDS011;40639;53.170;6.728;2023-07-02T04:15:16;18.02;;;6.55;;
54743;SDS011;40639;53.170;6.728;2023-07-02T04:17:42;17.52;;;6.55;;
54743;SDS011;40639;53.170;6.728;2023-07-02T04:20:09;17.02;;;6.93;;
54743;SDS011;40639;53.170;6.728;2023-07-02T04:22:35;19.90;;;6.97;;
54743;SDS011;40639;53.170;6.728;2023-07-02T04:25:01;19.52;;;7.88;;
54743;SDS011;40639;53.170;6.728;2023-07-02T04:27:27;16.77;;;5.82;;
54743;SDS011;40639;53.170;6.728;2023-07-02T04:29:53;16.20;;;6.55;;
54743;SDS011;40639;53.170;6.728;2023-07-02T04:32:20;15.93;;;5.40;;
54743;SDS011;40639;53.170;6.728;2023-07-02T04:34:46;23.48;;;6.53;;
54743;SDS011;40639;53.170;6.728;2023-07-02T04:37:13;15.70;;;6.60;;
54743;SDS011;40639;53.170;6.728;2023-07-02T04:39:40;17.63;;;6.90;;
54743;SDS011;40639;53.170;6.728;2023-07-02T04:42:06;20.75;;;7.15;;
54743;SDS011;40639;53.170;6.728;2023-07-02T04:44:35;21.38;;;5.70;;
54743;SDS011;40639;53.170;6.728;2023-07-02T04:47:01;19.10;;;7.45;;
54743;SDS011;40639;53.170;6.728;2023-07-02T04:49:27;17.67;;;5.90;;
54743;SDS011;40639;53.170;6.728;2023-07-02T04:51:54;18.25;;;6.57;;
54743;SDS011;40639;53.170;6.728;2023-07-02T04:54:20;20.13;;;7.15;;
54743;SDS011;40639;53.170;6.728;2023-07-02T04:56:47;21.40;;;6.95;;
54743;SDS011;40639;53.170;6.728;2023-07-02T04:59:13;16.40;;;6.13;;
54743;SDS011;40639;53.170;6.728;2023-07-02T05:01:39;19.75;;;6.90;;
54743;SDS011;40639;53.170;6.728;2023-07-02T05:04:05;22.83;;;6.65;;
54743;SDS011;40639;53.170;6.728;2023-07-02T05:06:32;14.98;;;6.32;;
54743;SDS011;40639;53.170;6.728;2023-07-02T05:08:58;15.48;;;6.00;;
54743;SDS011;40639;53.170;6.728;2023-07-02T05:11:24;19.27;;;6.32;;
54743;SDS011;40639;53.170;6.728;2023-07-02T05:13:50;16.90;;;5.57;;
54743;SDS011;40639;53.170;6.728;2023-07-02T05:16:16;15.55;;;6.43;;
54743;SDS011;40639;53.170;6.728;2023-07-02T05:18:42;18.88;;;6.10;;
54743;SDS011;40639;53.170;6.728;2023-07-02T05:21:08;15.02;;;6.45;;
54743;SDS011;40639;53.170;6.728;2023-07-02T05:23:34;17.45;;;6.28;;
54743;SDS011;40639;53.170;6.728;2023-07-02T05:26:01;16.73;;;6.35;;
54743;SDS011;40639;53.170;6.728;2023-07-02T05:28:27;16.60;;;5.45;;
54743;SDS011;40639;53.170;6.728;2023-07-02T05:30:53;14.55;;;6.10;;
54743;SDS011;40639;53.170;6.728;2023-07-02T05:33:20;14.95;;;5.65;;
54743;SDS011;40639;53.170;6.728;2023-07-02T05:35:47;14.20;;;5.07;;
54743;SDS011;40639;53.170;6.728;2023-07-02T05:38:13;13.88;;;5.70;;
54743;SDS011;40639;53.170;6.728;2023-07-02T05:40:40;12.52;;;4.90;;
54743;SDS011;40639;53.170;6.728;2023-07-02T05:43:06;13.02;;;4.50;;
54743;SDS011;40639;53.170;6.728;2023-07-02T05:45:33;14.68;;;5.47;;
54743;SDS011;40639;53.170;6.728;2023-07-02T05:47:59;16.17;;;6.38;;
54743;SDS011;40639;53.170;6.728;2023-07-02T05:50:25;13.90;;;4.95;;
54743;SDS011;40639;53.170;6.728;2023-07-02T05:52:51;12.35;;;4.38;;
54743;SDS011;40639;53.170;6.728;2023-07-02T05:55:17;15.48;;;5.40;;
54743;SDS011;40639;53.170;6.728;2023-07-02T05:57:43;13.00;;;4.63;;
54743;SDS011;40639;53.170;6.728;2023-07-02T06:00:09;9.93;;;4.80;;
54743;SDS011;40639;53.170;6.728;2023-07-02T06:02:36;15.93;;;4.47;;
54743;SDS011;40639;53.170;6.728;2023-07-02T06:05:02;14.90;;;4.80;;
54743;SDS011;40639;53.170;6.728;2023-07-02T06:07:28;13.18;;;4.57;;
54743;SDS011;40639;53.170;6.728;2023-07-02T06:09:54;10.70;;;4.05;;
54743;SDS011;40639;53.170;6.728;2023-07-02T06:12:21;16.52;;;4.90;;
54743;SDS011;40639;53.170;6.728;2023-07-02T06:14:47;15.38;;;5.03;;
54743;SDS011;40639;53.170;6.728;2023-07-02T06:17:14;12.60;;;4.80;;
54743;SDS011;40639;53.170;6.728;2023-07-02T06:19:40;16.42;;;4.50;;
54743;SDS011;40639;53.170;6.728;2023-07-02T06:22:06;11.98;;;5.05;;
54743;SDS011;40639;53.170;6.728;2023-07-02T06:24:32;13.98;;;4.80;;
54743;SDS011;40639;53.170;6.728;2023-07-02T06:26:59;12.55;;;4.65;;
54743;SDS011;40639;53.170;6.728;2023-07-02T06:29:25;13.02;;;4.80;;
54743;SDS011;40639;53.170;6.728;2023-07-02T06:31:53;14.93;;;5.53;;
54743;SDS011;40639;53.170;6.728;2023-07-02T06:34:19;11.93;;;4.38;;
54743;SDS011;40639;53.170;6.728;2023-07-02T06:36:45;14.35;;;5.40;;
54743;SDS011;40639;53.170;6.728;2023-07-02T06:39:11;12.45;;;5.07;;
54743;SDS011;40639;53.170;6.728;2023-07-02T06:41:38;17.23;;;4.30;;
54743;SDS011;40639;53.170;6.728;2023-07-02T06:44:04;11.77;;;4.25;;
54743;SDS011;40639;53.170;6.728;2023-07-02T06:46:30;15.82;;;4.97;;
54743;SDS011;40639;53.170;6.728;2023-07-02T06:48:56;10.57;;;4.57;;
54743;SDS011;40639;53.170;6.728;2023-07-02T06:51:22;16.45;;;4.32;;
54743;SDS011;40639;53.170;6.728;2023-07-02T06:53:50;13.40;;;4.60;;
54743;SDS011;40639;53.170;6.728;2023-07-02T06:56:16;11.85;;;4.00;;
54743;SDS011;40639;53.170;6.728;2023-07-02T06:58:43;10.80;;;3.92;;
54743;SDS011;40639;53.170;6.728;2023-07-02T07:01:09;10.20;;;3.95;;
54743;SDS011;40639;53.170;6.728;2023-07-02T07:03:35;10.48;;;3.35;;
54743;SDS011;40639;53.170;6.728;2023-07-02T07:06:02;11.32;;;3.05;;
54743;SDS011;40639;53.170;6.728;2023-07-02T07:08:28;13.70;;;3.33;;
54743;SDS011;40639;53.170;6.728;2023-07-02T07:10:54;7.88;;;2.90;;
54743;SDS011;40639;53.170;6.728;2023-07-02T07:13:20;12.13;;;3.03;;
54743;SDS011;40639;53.170;6.728;2023-07-02T07:15:46;11.45;;;3.63;;
54743;SDS011;40639;53.170;6.728;2023-07-02T07:18:12;7.45;;;2.38;;
54743;SDS011;40639;53.170;6.728;2023-07-02T07:20:39;7.65;;;2.53;;
54743;SDS011;40639;53.170;6.728;2023-07-02T07:23:05;8.38;;;2.05;;
54743;SDS011;40639;53.170;6.728;2023-07-02T07:25:32;10.75;;;2.90;;
54743;SDS011;40639;53.170;6.728;2023-07-02T07:27:59;13.65;;;2.67;;
54743;SDS011;40639;53.170;6.728;2023-07-02T07:30:25;8.07;;;2.38;;
54743;SDS011;40639;53.170;6.728;2023-07-02T07:32:51;8.02;;;3.00;;
54743;SDS011;40639;53.170;6.728;2023-07-02T07:35:21;10.98;;;3.25;;
54743;SDS011;40639;53.170;6.728;2023-07-02T07:37:47;7.53;;;2.30;;
54743;SDS011;40639;53.170;6.728;2023-07-02T07:40:14;9.95;;;3.33;;
54743;SDS011;40639;53.170;6.728;2023-07-02T07:42:40;10.38;;;3.22;;
54743;SDS011;40639;53.170;6.728;2023-07-02T07:45:10;8.63;;;3.15;;
54743;SDS011;40639;53.170;6.728;2023-07-02T07:47:36;8.32;;;2.88;;
54743;SDS011;40639;53.170;6.728;2023-07-02T07:50:02;8.77;;;2.65;;
54743;SDS011;40639;53.170;6.728;2023-07-02T07:52:34;8.88;;;2.75;;
54743;SDS011;40639;53.170;6.728;2023-07-02T07:55:01;10.77;;;2.75;;
54743;SDS011;40639;53.170;6.728;2023-07-02T07:57:27;9.68;;;2.60;;
54743;SDS011;40639;53.170;6.728;2023-07-02T07:59:53;8.73;;;2.78;;
54743;SDS011;40639;53.170;6.728;2023-07-02T08:02:19;7.05;;;2.47;;
54743;SDS011;40639;53.170;6.728;2023-07-02T08:04:48;8.77;;;2.25;;
54743;SDS011;40639;53.170;6.728;2023-07-02T08:07:14;13.70;;;3.40;;
54743;SDS011;40639;53.170;6.728;2023-07-02T08:09:40;8.57;;;2.85;;
54743;SDS011;40639;53.170;6.728;2023-07-02T08:12:06;6.35;;;2.80;;
54743;SDS011;40639;53.170;6.728;2023-07-02T08:14:33;7.72;;;2.42;;
54743;SDS011;40639;53.170;6.728;2023-07-02T08:17:03;7.82;;;2.35;;
54743;SDS011;40639;53.170;6.728;2023-07-02T08:19:29;7.22;;;1.88;;
54743;SDS011;40639;53.170;6.728;2023-07-02T08:21:55;5.88;;;2.47;;
54743;SDS011;40639;53.170;6.728;2023-07-02T08:24:21;8.98;;;2.60;;
54743;SDS011;40639;53.170;6.728;2023-07-02T08:26:47;5.53;;;2.10;;
54743;SDS011;40639;53.170;6.728;2023-07-02T08:29:14;6.88;;;2.30;;
54743;SDS011;40639;53.170;6.728;2023-07-02T08:31:41;7.03;;;2.15;;
54743;SDS011;40639;53.170;6.728;2023-07-02T08:34:08;8.35;;;2.35;;
54743;SDS011;40639;53.170;6.728;2023-07-02T08:36:34;5.40;;;2.20;;
54743;SDS011;40639;53.170;6.728;2023-07-02T08:39:00;7.20;;;2.60;;
54743;SDS011;40639;53.170;6.728;2023-07-02T08:41:26;8.10;;;2.50;;
54743;SDS011;40639;53.170;6.728;2023-07-02T08:43:55;7.95;;;3.05;;
54743;SDS011;40639;53.170;6.728;2023-07-02T08:46:21;7.60;;;2.75;;
54743;SDS011;40639;53.170;6.728;2023-07-02T08:48:47;10.13;;;2.80;;
54743;SDS011;40639;53.170;6.728;2023-07-02T08:51:13;10.82;;;3.50;;
54743;SDS011;40639;53.170;6.728;2023-07-02T08:53:40;7.28;;;3.03;;
54743;SDS011;40639;53.170;6.728;2023-07-02T08:56:06;12.98;;;2.92;;
54743;SDS011;40639;53.170;6.728;2023-07-02T08:58:32;7.93;;;2.92;;
54743;SDS011;40639;53.170;6.728;2023-07-02T09:01:08;7.38;;;2.67;;
54743;SDS011;40639;53.170;6.728;2023-07-02T09:03:35;8.75;;;3.42;;
54743;SDS011;40639;53.170;6.728;2023-07-02T09:06:05;9.63;;;3.40;;
54743;SDS011;40639;53.170;6.728;2023-07-02T09:08:32;12.10;;;3.28;;
54743;SDS011;40639;53.170;6.728;2023-07-02T09:13:49;10.93;;;3.50;;
54743;SDS011;40639;53.170;6.728;2023-07-02T09:19:01;14.27;;;3.73;;
54743;SDS011;40639;53.170;6.728;2023-07-02T09:21:37;12.55;;;3.72;;
54743;SDS011;40639;53.170;6.728;2023-07-02T09:24:18;11.93;;;3.70;;
54743;SDS011;40639;53.170;6.728;2023-07-02T09:26:48;7.30;;;2.80;;
54743;SDS011;40639;53.170;6.728;2023-07-02T09:29:22;7.40;;;3.05;;
54743;SDS011;40639;53.170;6.728;2023-07-02T09:31:49;6.75;;;2.83;;
54743;SDS011;40639;53.170;6.728;2023-07-02T09:34:15;7.70;;;2.90;;
54743;SDS011;40639;53.170;6.728;2023-07-02T09:36:42;7.88;;;3.22;;
54743;SDS011;40639;53.170;6.728;2023-07-02T09:39:12;8.68;;;3.22;;
54743;SDS011;40639;53.170;6.728;2023-07-02T09:41:41;8.05;;;2.75;;
54743;SDS011;40639;53.170;6.728;2023-07-02T09:44:08;8.85;;;2.58;;
54743;SDS011;40639;53.170;6.728;2023-07-02T09:46:41;7.93;;;2.22;;
54743;SDS011;40639;53.170;6.728;2023-07-02T09:49:11;7.65;;;2.33;;
54743;SDS011;40639;53.170;6.728;2023-07-02T09:51:40;5.43;;;2.03;;
54743;SDS011;40639;53.170;6.728;2023-07-02T09:54:07;6.40;;;2.25;;
54743;SDS011;40639;53.170;6.728;2023-07-02T09:56:33;7.95;;;2.13;;
54743;SDS011;40639;53.170;6.728;2023-07-02T09:59:00;7.32;;;1.95;;
54743;SDS011;40639;53.170;6.728;2023-07-02T10:01:26;6.82;;;1.92;;
54743;SDS011;40639;53.170;6.728;2023-07-02T10:03:52;7.18;;;2.33;;
54743;SDS011;40639;53.170;6.728;2023-07-02T10:06:18;8.00;;;2.30;;
54743;SDS011;40639;53.170;6.728;2023-07-02T10:08:54;8.95;;;2.45;;
54743;SDS011;40639;53.170;6.728;2023-07-02T10:11:20;6.80;;;2.22;;
54743;SDS011;40639;53.170;6.728;2023-07-02T10:13:57;8.65;;;2.53;;
54743;SDS011;40639;53.170;6.728;2023-07-02T10:16:24;8.80;;;2.53;;
54743;SDS011;40639;53.170;6.728;2023-07-02T10:18:52;7.40;;;2.88;;
54743;SDS011;40639;53.170;6.728;2023-07-02T10:21:19;7.88;;;2.63;;
54743;SDS011;40639;53.170;6.728;2023-07-02T10:23:45;6.93;;;2.35;;
54743;SDS011;40639;53.170;6.728;2023-07-02T10:26:15;7.10;;;2.25;;
54743;SDS011;40639;53.170;6.728;2023-07-02T10:28:42;5.65;;;2.03;;
54743;SDS011;40639;53.170;6.728;2023-07-02T10:31:18;8.40;;;2.65;;
54743;SDS011;40639;53.170;6.728;2023-07-02T10:33:45;6.15;;;1.88;;
54743;SDS011;40639;53.170;6.728;2023-07-02T10:36:18;6.78;;;2.17;;
54743;SDS011;40639;53.170;6.728;2023-07-02T10:38:45;5.80;;;2.17;;
54743;SDS011;40639;53.170;6.728;2023-07-02T10:41:12;7.40;;;2.28;;
54743;SDS011;40639;53.170;6.728;2023-07-02T10:43:38;8.50;;;2.55;;
54743;SDS011;40639;53.170;6.728;2023-07-02T10:46:04;7.88;;;2.38;;
54743;SDS011;40639;53.170;6.728;2023-07-02T10:48:30;7.13;;;2.20;;
54743;SDS011;40639;53.170;6.728;2023-07-02T10:50:57;8.55;;;2.60;;
54743;SDS011;40639;53.170;6.728;2023-07-02T10:53:23;8.52;;;2.65;;
54743;SDS011;40639;53.170;6.728;2023-07-02T10:55:56;9.20;;;2.67;;
54743;SDS011;40639;53.170;6.728;2023-07-02T10:58:22;8.15;;;2.20;;
54743;SDS011;40639;53.170;6.728;2023-07-02T11:00:49;8.80;;;2.28;;
54743;SDS011;40639;53.170;6.728;2023-07-02T11:03:22;6.88;;;2.60;;
54743;SDS011;40639;53.170;6.728;2023-07-02T11:05:49;4.95;;;2.30;;
54743;SDS011;40639;53.170;6.728;2023-07-02T11:08:15;5.95;;;2.20;;
54743;SDS011;40639;53.170;6.728;2023-07-02T11:10:42;5.18;;;2.10;;
54743;SDS011;40639;53.170;6.728;2023-07-02T11:15:37;8.20;;;2.47;;
54743;SDS011;40639;53.170;6.728;2023-07-02T11:18:11;8.23;;;2.03;;
54743;SDS011;40639;53.170;6.728;2023-07-02T11:20:38;8.15;;;2.25;;
54743;SDS011;40639;53.170;6.728;2023-07-02T11:23:04;9.07;;;2.35;;
54743;SDS011;40639;53.170;6.728;2023-07-02T11:25:31;8.95;;;2.38;;
54743;SDS011;40639;53.170;6.728;2023-07-02T11:28:03;8.13;;;2.03;;
54743;SDS011;40639;53.170;6.728;2023-07-02T11:30:29;10.13;;;2.63;;
54743;SDS011;40639;53.170;6.728;2023-07-02T11:32:56;8.52;;;2.42;;
54743;SDS011;40639;53.170;6.728;2023-07-02T11:35:27;9.40;;;2.30;;
54743;SDS011;40639;53.170;6.728;2023-07-02T11:37:59;7.88;;;2.80;;
54743;SDS011;40639;53.170;6.728;2023-07-02T11:40:25;8.60;;;2.40;;
54743;SDS011;40639;53.170;6.728;2023-07-02T11:42:51;9.30;;;2.53;;
54743;SDS011;40639;53.170;6.728;2023-07-02T11:45:17;7.57;;;2.70;;
54743;SDS011;40639;53.170;6.728;2023-07-02T11:47:43;7.03;;;2.42;;
54743;SDS011;40639;53.170;6.728;2023-07-02T11:50:10;4.85;;;2.13;;
54743;SDS011;40639;53.170;6.728;2023-07-02T11:52:36;8.98;;;2.22;;
54743;SDS011;40639;53.170;6.728;2023-07-02T11:55:02;6.45;;;2.03;;
54743;SDS011;40639;53.170;6.728;2023-07-02T11:57:28;7.18;;;1.60;;
54743;SDS011;40639;53.170;6.728;2023-07-02T11:59:54;5.40;;;1.75;;
54743;SDS011;40639;53.170;6.728;2023-07-02T12:02:21;6.60;;;2.00;;
54743;SDS011;40639;53.170;6.728;2023-07-02T12:04:47;4.28;;;1.80;;
54743;SDS011;40639;53.170;6.728;2023-07-02T12:07:13;5.47;;;1.52;;
54743;SDS011;40639;53.170;6.728;2023-07-02T12:09:39;7.03;;;1.70;;
54743;SDS011;40639;53.170;6.728;2023-07-02T12:12:06;5.35;;;1.90;;
54743;SDS011;40639;53.170;6.728;2023-07-02T12:14:32;6.55;;;1.90;;
54743;SDS011;40639;53.170;6.728;2023-07-02T12:16:58;8.63;;;1.90;;
54743;SDS011;40639;53.170;6.728;2023-07-02T12:19:24;6.80;;;1.90;;
54743;SDS011;40639;53.170;6.728;2023-07-02T12:21:51;6.93;;;2.33;;
54743;SDS011;40639;53.170;6.728;2023-07-02T12:24:17;7.65;;;2.05;;
54743;SDS011;40639;53.170;6.728;2023-07-02T12:26:43;13.00;;;2.20;;
54743;SDS011;40639;53.170;6.728;2023-07-02T12:29:09;5.38;;;1.75;;
54743;SDS011;40639;53.170;6.728;2023-07-02T12:31:35;4.05;;;1.80;;
54743;SDS011;40639;53.170;6.728;2023-07-02T12:34:02;9.38;;;2.22;;
54743;SDS011;40639;53.170;6.728;2023-07-02T12:36:28;8.70;;;2.47;;
54743;SDS011;40639;53.170;6.728;2023-07-02T12:38:54;7.85;;;2.03;;
54743;SDS011;40639;53.170;6.728;2023-07-02T12:41:20;3.90;;;1.92;;
54743;SDS011;40639;53.170;6.728;2023-07-02T12:43:46;9.45;;;2.38;;
54743;SDS011;40639;53.170;6.728;2023-07-02T12:46:12;6.00;;;2.33;;
54743;SDS011;40639;53.170;6.728;2023-07-02T12:48:38;7.72;;;2.53;;
54743;SDS011;40639;53.170;6.728;2023-07-02T12:51:04;6.75;;;2.40;;
54743;SDS011;40639;53.170;6.728;2023-07-02T12:53:30;7.38;;;2.20;;
54743;SDS011;40639;53.170;6.728;2023-07-02T12:55:57;4.60;;;2.03;;
54743;SDS011;40639;53.170;6.728;2023-07-02T12:58:23;6.50;;;2.58;;
54743;SDS011;40639;53.170;6.728;2023-07-02T13:00:49;4.95;;;2.38;;
54743;SDS011;40639;53.170;6.728;2023-07-02T13:03:16;6.85;;;2.45;;
54743;SDS011;40639;53.170;6.728;2023-07-02T13:05:42;9.40;;;2.60;;
54743;SDS011;40639;53.170;6.728;2023-07-02T13:08:09;5.72;;;2.40;;
54743;SDS011;40639;53.170;6.728;2023-07-02T13:10:35;9.15;;;2.88;;
54743;SDS011;40639;53.170;6.728;2023-07-02T13:13:01;7.75;;;2.70;;
54743;SDS011;40639;53.170;6.728;2023-07-02T13:15:28;6.88;;;2.65;;
54743;SDS011;40639;53.170;6.728;2023-07-02T13:17:54;8.40;;;2.92;;
54743;SDS011;40639;53.170;6.728;2023-07-02T13:20:20;9.02;;;2.83;;
54743;SDS011;40639;53.170;6.728;2023-07-02T13:22:46;7.00;;;2.95;;
54743;SDS011;40639;53.170;6.728;2023-07-02T13:25:12;9.77;;;3.47;;
54743;SDS011;40639;53.170;6.728;2023-07-02T13:27:38;7.50;;;3.22;;
54743;SDS011;40639;53.170;6.728;2023-07-02T13:30:05;11.82;;;3.13;;
54743;SDS011;40639;53.170;6.728;2023-07-02T13:32:31;8.25;;;3.00;;
54743;SDS011;40639;53.170;6.728;2023-07-02T13:34:57;4.95;;;2.70;;
54743;SDS011;40639;53.170;6.728;2023-07-02T13:37:23;8.10;;;3.00;;
54743;SDS011;40639;53.170;6.728;2023-07-02T13:39:49;8.70;;;3.10;;
54743;SDS011;40639;53.170;6.728;2023-07-02T13:42:16;8.85;;;3.35;;
54743;SDS011;40639;53.170;6.728;2023-07-02T13:44:42;8.60;;;3.20;;
54743;SDS011;40639;53.170;6.728;2023-07-02T13:47:08;8.30;;;3.17;;
54743;SDS011;40639;53.170;6.728;2023-07-02T13:49:34;9.95;;;3.88;;
54743;SDS011;40639;53.170;6.728;2023-07-02T13:52:01;8.23;;;3.58;;
54743;SDS011;40639;53.170;6.728;2023-07-02T13:54:27;6.80;;;2.78;;
54743;SDS011;40639;53.170;6.728;2023-07-02T13:56:53;6.75;;;3.30;;
54743;SDS011;40639;53.170;6.728;2023-07-02T13:59:19;13.68;;;3.83;;
54743;SDS011;40639;53.170;6.728;2023-07-02T14:01:46;7.55;;;3.40;;
54743;SDS011;40639;53.170;6.728;2023-07-02T14:04:13;10.65;;;3.83;;
54743;SDS011;40639;53.170;6.728;2023-07-02T14:06:39;9.60;;;3.72;;
54743;SDS011;40639;53.170;6.728;2023-07-02T14:09:06;8.43;;;3.40;;
54743;SDS011;40639;53.170;6.728;2023-07-02T14:11:33;9.23;;;3.60;;
54743;SDS011;40639;53.170;6.728;2023-07-02T14:13:59;9.07;;;3.40;;
54743;SDS011;40639;53.170;6.728;2023-07-02T14:16:26;9.82;;;3.97;;
54743;SDS011;40639;53.170;6.728;2023-07-02T14:18:52;10.60;;;3.75;;
54743;SDS011;40639;53.170;6.728;2023-07-02T14:21:18;8.48;;;3.65;;
54743;SDS011;40639;53.170;6.728;2023-07-02T14:23:45;9.85;;;3.65;;
54743;SDS011;40639;53.170;6.728;2023-07-02T14:26:11;10.30;;;3.90;;
54743;SDS011;40639;53.170;6.728;2023-07-02T14:28:37;9.32;;;3.58;;
54743;SDS011;40639;53.170;6.728;2023-07-02T14:31:04;7.35;;;3.63;;
54743;SDS011;40639;53.170;6.728;2023-07-02T14:33:31;11.25;;;3.67;;
54743;SDS011;40639;53.170;6.728;2023-07-02T14:35:58;11.52;;;3.97;;
54743;SDS011;40639;53.170;6.728;2023-07-02T14:38:24;12.45;;;4.25;;
54743;SDS011;40639;53.170;6.728;2023-07-02T14:40:50;12.45;;;3.78;;
54743;SDS011;40639;53.170;6.728;2023-07-02T14:43:17;9.40;;;4.40;;
54743;SDS011;40639;53.170;6.728;2023-07-02T14:45:45;11.40;;;3.78;;
54743;SDS011;40639;53.170;6.728;2023-07-02T14:48:12;8.88;;;3.53;;